sensor_id;sensor_type;location;lat;lon;timestamp;pressure;altitude;pressure_sealevel;temperature;humidity
67434;BME280;54305;47.950;6.572;2022-08-21T00:02:17;94604.28;;;13.02;78.07
67434;BME280;54305;47.950;6.572;2022-08-21T00:04:42;94599.41;;;12.99;77.79
67434;BME280;54305;47.950;6.572;2022-08-21T00:07:08;94598.91;;;12.95;78.53
67434;BME280;54305;47.950;6.572;2022-08-21T00:09:33;94588.44;;;12.95;78.74
67434;BME280;54305;47.950;6.572;2022-08-21T00:11:58;94589.25;;;12.96;78.65
67434;BME280;54305;47.950;6.572;2022-08-21T00:14:24;94589.59;;;12.93;78.19
67434;BME280;54305;47.950;6.572;2022-08-21T00:16:49;94585.34;;;13.00;78.96
67434;BME280;54305;47.950;6.572;2022-08-21T00:19:15;94586.34;;;12.99;78.14
67434;BME280;54305;47.950;6.572;2022-08-21T00:21:40;94587.63;;;12.95;78.08
67434;BME280;54305;47.950;6.572;2022-08-21T00:24:05;94583.06;;;12.89;77.89
67434;BME280;54305;47.950;6.572;2022-08-21T00:26:31;94577.66;;;12.98;79.05
67434;BME280;54305;47.950;6.572;2022-08-21T00:28:56;94570.13;;;13.03;79.04
67434;BME280;54305;47.950;6.572;2022-08-21T00:31:21;94570.59;;;13.07;78.94
67434;BME280;54305;47.950;6.572;2022-08-21T00:33:47;94576.50;;;13.01;78.65
67434;BME280;54305;47.950;6.572;2022-08-21T00:36:12;94572.75;;;13.03;78.37
67434;BME280;54305;47.950;6.572;2022-08-21T00:38:38;94566.72;;;13.03;78.85
67434;BME280;54305;47.950;6.572;2022-08-21T00:41:04;94565.38;;;13.07;78.37
67434;BME280;54305;47.950;6.572;2022-08-21T00:43:32;94556.88;;;13.05;79.26
67434;BME280;54305;47.950;6.572;2022-08-21T00:45:57;94559.84;;;13.02;80.77
67434;BME280;54305;47.950;6.572;2022-08-21T00:48:23;94555.25;;;12.96;80.13
67434;BME280;54305;47.950;6.572;2022-08-21T00:50:51;94552.19;;;13.00;80.17
67434;BME280;54305;47.950;6.572;2022-08-21T00:53:17;94551.69;;;12.97;80.39
67434;BME280;54305;47.950;6.572;2022-08-21T00:55:42;94547.13;;;12.99;80.46
67434;BME280;54305;47.950;6.572;2022-08-21T00:58:09;94551.03;;;12.95;81.27
67434;BME280;54305;47.950;6.572;2022-08-21T01:00:37;94551.03;;;12.95;81.17
67434;BME280;54305;47.950;6.572;2022-08-21T01:03:06;94549.91;;;12.97;81.29
67434;BME280;54305;47.950;6.572;2022-08-21T01:05:32;94551.34;;;13.08;81.37
67434;BME280;54305;47.950;6.572;2022-08-21T01:07:57;94549.34;;;13.10;80.49
67434;BME280;54305;47.950;6.572;2022-08-21T01:10:22;94552.97;;;13.09;80.13
67434;BME280;54305;47.950;6.572;2022-08-21T01:12:48;94552.97;;;13.09;80.26
67434;BME280;54305;47.950;6.572;2022-08-21T01:15:13;94543.78;;;13.13;80.05
67434;BME280;54305;47.950;6.572;2022-08-21T01:17:40;94545.75;;;13.11;79.00
67434;BME280;54305;47.950;6.572;2022-08-21T01:20:07;94549.69;;;13.07;79.32
67434;BME280;54305;47.950;6.572;2022-08-21T01:22:34;94549.31;;;13.18;79.95
67434;BME280;54305;47.950;6.572;2022-08-21T01:24:59;94544.81;;;13.04;79.74
67434;BME280;54305;47.950;6.572;2022-08-21T01:27:24;94557.88;;;12.96;80.34
67434;BME280;54305;47.950;6.572;2022-08-21T01:32:44;94547.63;;;12.86;80.33
67434;BME280;54305;47.950;6.572;2022-08-21T01:35:11;94544.34;;;12.84;80.92
67434;BME280;54305;47.950;6.572;2022-08-21T01:37:36;94543.56;;;12.84;81.17
67434;BME280;54305;47.950;6.572;2022-08-21T01:40:02;94540.97;;;12.76;81.39
67434;BME280;54305;47.950;6.572;2022-08-21T01:42:28;94550.47;;;12.69;81.71
67434;BME280;54305;47.950;6.572;2022-08-21T01:44:53;94555.72;;;12.69;82.03
67434;BME280;54305;47.950;6.572;2022-08-21T01:47:19;94545.25;;;12.69;82.05
67434;BME280;54305;47.950;6.572;2022-08-21T01:49:44;94557.19;;;12.63;81.62
67434;BME280;54305;47.950;6.572;2022-08-21T01:52:10;94551.97;;;12.63;82.07
67434;BME280;54305;47.950;6.572;2022-08-21T01:54:36;94549.50;;;12.62;82.53
67434;BME280;54305;47.950;6.572;2022-08-21T01:57:02;94548.41;;;12.56;82.67
67434;BME280;54305;47.950;6.572;2022-08-21T01:59:28;94545.63;;;12.50;83.93
67434;BME280;54305;47.950;6.572;2022-08-21T02:01:53;94546.94;;;12.54;83.28
67434;BME280;54305;47.950;6.572;2022-08-21T02:04:21;94530.59;;;12.52;82.84
67434;BME280;54305;47.950;6.572;2022-08-21T02:06:47;94527.31;;;12.58;82.76
67434;BME280;54305;47.950;6.572;2022-08-21T02:09:14;94527.97;;;12.60;82.46
67434;BME280;54305;47.950;6.572;2022-08-21T02:11:39;94528.59;;;12.62;82.29
67434;BME280;54305;47.950;6.572;2022-08-21T02:14:06;94525.69;;;12.57;82.49
67434;BME280;54305;47.950;6.572;2022-08-21T02:16:31;94534.84;;;12.53;82.66
67434;BME280;54305;47.950;6.572;2022-08-21T02:18:56;94527.66;;;12.55;83.64
67434;BME280;54305;47.950;6.572;2022-08-21T02:21:22;94526.03;;;12.54;82.97
67434;BME280;54305;47.950;6.572;2022-08-21T02:23:47;94520.47;;;12.57;83.03
67434;BME280;54305;47.950;6.572;2022-08-21T02:26:12;94520.75;;;12.70;82.83
67434;BME280;54305;47.950;6.572;2022-08-21T02:28:38;94518.78;;;12.72;82.71
67434;BME280;54305;47.950;6.572;2022-08-21T02:31:03;94518.78;;;12.72;83.01
67434;BME280;54305;47.950;6.572;2022-08-21T02:33:29;94524.66;;;12.74;82.54
67434;BME280;54305;47.950;6.572;2022-08-21T02:35:55;94518.59;;;12.73;82.73
67434;BME280;54305;47.950;6.572;2022-08-21T02:38:26;94522.03;;;12.74;82.92
67434;BME280;54305;47.950;6.572;2022-08-21T02:40:51;94520.06;;;12.76;82.21
67434;BME280;54305;47.950;6.572;2022-08-21T02:43:17;94516.47;;;12.77;81.98
67434;BME280;54305;47.950;6.572;2022-08-21T02:45:43;94515.81;;;12.83;82.28
67434;BME280;54305;47.950;6.572;2022-08-21T02:48:10;94516.75;;;12.82;82.02
67434;BME280;54305;47.950;6.572;2022-08-21T02:50:37;94515.31;;;12.79;82.65
67434;BME280;54305;47.950;6.572;2022-08-21T02:53:03;94508.78;;;12.75;82.21
67434;BME280;54305;47.950;6.572;2022-08-21T02:55:30;94522.28;;;12.87;82.24
67434;BME280;54305;47.950;6.572;2022-08-21T02:57:56;94516.13;;;12.80;81.65
67434;BME280;54305;47.950;6.572;2022-08-21T03:00:23;94512.53;;;12.81;82.73
67434;BME280;54305;47.950;6.572;2022-08-21T03:02:49;94519.06;;;12.77;82.49
67434;BME280;54305;47.950;6.572;2022-08-21T03:05:14;94510.94;;;12.72;81.99
67434;BME280;54305;47.950;6.572;2022-08-21T03:07:40;94505.06;;;12.70;82.41
67434;BME280;54305;47.950;6.572;2022-08-21T03:10:06;94505.22;;;12.76;82.68
67434;BME280;54305;47.950;6.572;2022-08-21T03:12:31;94505.69;;;12.80;82.14
67434;BME280;54305;47.950;6.572;2022-08-21T03:14:57;94505.53;;;12.73;81.65
67434;BME280;54305;47.950;6.572;2022-08-21T03:17:23;94504.94;;;12.63;81.98
67434;BME280;54305;47.950;6.572;2022-08-21T03:19:49;94508.38;;;12.56;82.02
67434;BME280;54305;47.950;6.572;2022-08-21T03:22:14;94506.75;;;12.55;82.71
67434;BME280;54305;47.950;6.572;2022-08-21T03:24:39;94502.19;;;12.49;82.79
67434;BME280;54305;47.950;6.572;2022-08-21T03:27:05;94500.94;;;12.45;83.40
67434;BME280;54305;47.950;6.572;2022-08-21T03:29:30;94505.47;;;12.51;83.99
67434;BME280;54305;47.950;6.572;2022-08-21T03:31:55;94494.69;;;12.54;83.67
67434;BME280;54305;47.950;6.572;2022-08-21T03:34:21;94503.00;;;12.49;83.23
67434;BME280;54305;47.950;6.572;2022-08-21T03:36:46;94499.06;;;12.61;82.56
67434;BME280;54305;47.950;6.572;2022-08-21T03:39:11;94496.94;;;12.65;82.33
67434;BME280;54305;47.950;6.572;2022-08-21T03:41:37;94495.97;;;12.58;82.73
67434;BME280;54305;47.950;6.572;2022-08-21T03:44:02;94499.78;;;12.47;82.70
67434;BME280;54305;47.950;6.572;2022-08-21T03:46:28;94491.13;;;12.39;83.14
67434;BME280;54305;47.950;6.572;2022-08-21T03:48:54;94499.22;;;12.60;84.03
67434;BME280;54305;47.950;6.572;2022-08-21T03:51:20;94492.63;;;12.72;82.63
67434;BME280;54305;47.950;6.572;2022-08-21T03:53:45;94498.56;;;12.66;81.99
67434;BME280;54305;47.950;6.572;2022-08-21T03:56:11;94495.31;;;12.64;82.99
67434;BME280;54305;47.950;6.572;2022-08-21T03:58:36;94493.31;;;12.66;83.67
67434;BME280;54305;47.950;6.572;2022-08-21T04:01:04;94492.72;;;12.56;83.49
67434;BME280;54305;47.950;6.572;2022-08-21T04:03:31;94498.44;;;12.51;83.12
67434;BME280;54305;47.950;6.572;2022-08-21T04:05:57;94496.84;;;12.42;83.18
67434;BME280;54305;47.950;6.572;2022-08-21T04:08:22;94498.31;;;12.45;84.29
67434;BME280;54305;47.950;6.572;2022-08-21T04:10:48;94492.41;;;12.43;84.19
67434;BME280;54305;47.950;6.572;2022-08-21T04:13:14;94496.69;;;12.36;84.61
67434;BME280;54305;47.950;6.572;2022-08-21T04:15:40;94492.09;;;12.46;84.86
67434;BME280;54305;47.950;6.572;2022-08-21T04:18:06;94482.28;;;12.48;84.29
67434;BME280;54305;47.950;6.572;2022-08-21T04:20:31;94487.19;;;12.43;84.13
67434;BME280;54305;47.950;6.572;2022-08-21T04:22:57;94489.19;;;12.41;84.17
67434;BME280;54305;47.950;6.572;2022-08-21T04:25:23;94487.19;;;12.43;83.76
67434;BME280;54305;47.950;6.572;2022-08-21T04:27:50;94492.72;;;12.56;83.34
67434;BME280;54305;47.950;6.572;2022-08-21T04:30:16;94494.88;;;12.44;83.14
67434;BME280;54305;47.950;6.572;2022-08-21T04:32:51;94503.00;;;12.57;83.28
67434;BME280;54305;47.950;6.572;2022-08-21T04:35:17;94507.78;;;12.46;83.51
67434;BME280;54305;47.950;6.572;2022-08-21T04:37:43;94508.44;;;12.40;84.69
67434;BME280;54305;47.950;6.572;2022-08-21T04:40:09;94501.25;;;12.34;84.53
67434;BME280;54305;47.950;6.572;2022-08-21T04:42:39;94499.94;;;12.38;83.95
67434;BME280;54305;47.950;6.572;2022-08-21T04:45:05;94496.34;;;12.39;83.77
67434;BME280;54305;47.950;6.572;2022-08-21T04:47:30;94503.84;;;12.42;83.83
67434;BME280;54305;47.950;6.572;2022-08-21T04:49:55;94511.38;;;12.45;85.11
67434;BME280;54305;47.950;6.572;2022-08-21T04:52:21;94512.00;;;12.47;84.86
67434;BME280;54305;47.950;6.572;2022-08-21T04:54:47;94509.25;;;12.40;84.52
67434;BME280;54305;47.950;6.572;2022-08-21T04:57:16;94506.00;;;12.38;84.30
67434;BME280;54305;47.950;6.572;2022-08-21T04:59:43;94511.00;;;12.48;83.80
67434;BME280;54305;47.950;6.572;2022-08-21T05:02:10;94507.78;;;12.46;84.04
67434;BME280;54305;47.950;6.572;2022-08-21T05:04:37;94511.19;;;12.46;83.59
67434;BME280;54305;47.950;6.572;2022-08-21T05:07:05;94515.53;;;12.62;83.68
67434;BME280;54305;47.950;6.572;2022-08-21T05:09:32;94511.94;;;12.63;83.55
67434;BME280;54305;47.950;6.572;2022-08-21T05:11:58;94511.28;;;12.69;84.01
67434;BME280;54305;47.950;6.572;2022-08-21T05:14:23;94516.63;;;12.75;83.37
67434;BME280;54305;47.950;6.572;2022-08-21T05:16:50;94506.16;;;12.83;82.70
67434;BME280;54305;47.950;6.572;2022-08-21T05:19:15;94522.59;;;12.92;82.72
67434;BME280;54305;47.950;6.572;2022-08-21T05:21:41;94517.66;;;13.05;82.25
67434;BME280;54305;47.950;6.572;2022-08-21T05:24:07;94517.88;;;13.26;80.63
67434;BME280;54305;47.950;6.572;2022-08-21T05:26:32;94516.50;;;13.38;80.69
67434;BME280;54305;47.950;6.572;2022-08-21T05:28:57;94521.63;;;13.54;80.49
67434;BME280;54305;47.950;6.572;2022-08-21T05:31:23;94517.63;;;13.66;80.42
67434;BME280;54305;47.950;6.572;2022-08-21T05:33:48;94519.47;;;13.80;80.36
67434;BME280;54305;47.950;6.572;2022-08-21T05:36:14;94515.25;;;13.93;80.01
67434;BME280;54305;47.950;6.572;2022-08-21T05:38:39;94524.78;;;14.09;79.61
67434;BME280;54305;47.950;6.572;2022-08-21T05:41:05;94527.28;;;14.25;79.18
67434;BME280;54305;47.950;6.572;2022-08-21T05:43:30;94524.50;;;14.41;79.62
67434;BME280;54305;47.950;6.572;2022-08-21T05:45:57;94519.91;;;14.57;79.51
67434;BME280;54305;47.950;6.572;2022-08-21T05:48:23;94519.91;;;14.72;79.77
67434;BME280;54305;47.950;6.572;2022-08-21T05:50:50;94530.56;;;14.85;78.45
67434;BME280;54305;47.950;6.572;2022-08-21T05:53:15;94522.69;;;14.99;77.41
67434;BME280;54305;47.950;6.572;2022-08-21T05:55:41;94521.47;;;15.16;76.16
67434;BME280;54305;47.950;6.572;2022-08-21T05:58:07;94525.53;;;15.33;75.94
67434;BME280;54305;47.950;6.572;2022-08-21T06:00:32;94528.50;;;15.45;75.88
67434;BME280;54305;47.950;6.572;2022-08-21T06:02:58;94530.88;;;15.61;75.58
67434;BME280;54305;47.950;6.572;2022-08-21T06:05:23;94530.00;;;15.75;74.90
67434;BME280;54305;47.950;6.572;2022-08-21T06:07:48;94534.22;;;15.90;75.57
67434;BME280;54305;47.950;6.572;2022-08-21T06:10:14;94534.75;;;16.07;73.78
67434;BME280;54305;47.950;6.572;2022-08-21T06:12:39;94530.06;;;16.30;73.97
67434;BME280;54305;47.950;6.572;2022-08-21T06:15:04;94533.50;;;16.51;72.45
67434;BME280;54305;47.950;6.572;2022-08-21T06:17:30;94526.34;;;16.73;71.78
67434;BME280;54305;47.950;6.572;2022-08-21T06:19:55;94529.91;;;16.93;71.02
67434;BME280;54305;47.950;6.572;2022-08-21T06:22:21;94521.72;;;17.09;70.45
67434;BME280;54305;47.950;6.572;2022-08-21T06:24:46;94515.91;;;17.26;69.28
67434;BME280;54305;47.950;6.572;2022-08-21T06:27:11;94514.38;;;17.45;68.15
67434;BME280;54305;47.950;6.572;2022-08-21T06:29:37;94512.78;;;17.63;68.85
67434;BME280;54305;47.950;6.572;2022-08-21T06:32:03;94513.03;;;17.75;67.48
67434;BME280;54305;47.950;6.572;2022-08-21T06:34:28;94497.25;;;17.88;67.12
67434;BME280;54305;47.950;6.572;2022-08-21T06:36:53;94509.63;;;18.00;66.16
67434;BME280;54305;47.950;6.572;2022-08-21T06:39:18;94508.22;;;18.11;65.11
67434;BME280;54305;47.950;6.572;2022-08-21T06:41:44;94511.06;;;18.22;66.09
67434;BME280;54305;47.950;6.572;2022-08-21T06:44:10;94504.19;;;18.34;65.94
67434;BME280;54305;47.950;6.572;2022-08-21T06:46:35;94506.00;;;18.47;63.57
67434;BME280;54305;47.950;6.572;2022-08-21T06:49:01;94499.47;;;18.62;64.24
67434;BME280;54305;47.950;6.572;2022-08-21T06:51:26;94499.69;;;18.61;64.13
67434;BME280;54305;47.950;6.572;2022-08-21T06:53:52;94502.13;;;18.69;62.66
67434;BME280;54305;47.950;6.572;2022-08-21T06:56:17;94506.56;;;18.75;61.02
67434;BME280;54305;47.950;6.572;2022-08-21T06:58:43;94506.94;;;18.91;62.54
67434;BME280;54305;47.950;6.572;2022-08-21T07:01:08;94501.84;;;18.90;64.47
67434;BME280;54305;47.950;6.572;2022-08-21T07:03:37;94508.13;;;19.02;62.78
67434;BME280;54305;47.950;6.572;2022-08-21T07:06:03;94501.16;;;19.14;63.09
67434;BME280;54305;47.950;6.572;2022-08-21T07:08:29;94502.75;;;19.28;60.48
67434;BME280;54305;47.950;6.572;2022-08-21T07:10:56;94497.25;;;19.36;61.75
67434;BME280;54305;47.950;6.572;2022-08-21T07:13:21;94494.97;;;19.46;59.81
67434;BME280;54305;47.950;6.572;2022-08-21T07:15:47;94495.53;;;19.54;60.08
67434;BME280;54305;47.950;6.572;2022-08-21T07:18:12;94492.06;;;19.54;60.96
67434;BME280;54305;47.950;6.572;2022-08-21T07:20:38;94490.78;;;19.63;59.86
67434;BME280;54305;47.950;6.572;2022-08-21T07:23:06;94499.69;;;19.75;59.84
67434;BME280;54305;47.950;6.572;2022-08-21T07:25:32;94496.34;;;19.86;60.62
67434;BME280;54305;47.950;6.572;2022-08-21T07:27:58;94494.22;;;20.01;60.10
67434;BME280;54305;47.950;6.572;2022-08-21T07:30:23;94492.19;;;20.03;61.32
67434;BME280;54305;47.950;6.572;2022-08-21T07:32:50;94492.09;;;20.16;58.99
67434;BME280;54305;47.950;6.572;2022-08-21T07:35:17;94493.72;;;20.17;59.07
67434;BME280;54305;47.950;6.572;2022-08-21T07:37:44;94497.63;;;20.39;61.10
67434;BME280;54305;47.950;6.572;2022-08-21T07:40:10;94488.03;;;20.63;58.97
67434;BME280;54305;47.950;6.572;2022-08-21T07:42:39;94487.53;;;20.72;58.89
67434;BME280;54305;47.950;6.572;2022-08-21T07:45:04;94483.56;;;20.63;57.75
67434;BME280;54305;47.950;6.572;2022-08-21T07:47:30;94478.06;;;20.40;58.91
67434;BME280;54305;47.950;6.572;2022-08-21T07:49:55;94477.53;;;20.56;58.17
67434;BME280;54305;47.950;6.572;2022-08-21T07:52:20;94485.47;;;20.74;57.43
67434;BME280;54305;47.950;6.572;2022-08-21T07:54:46;94493.88;;;20.89;58.11
67434;BME280;54305;47.950;6.572;2022-08-21T07:57:11;94493.50;;;20.86;55.41
67434;BME280;54305;47.950;6.572;2022-08-21T07:59:36;94494.03;;;20.76;55.91
67434;BME280;54305;47.950;6.572;2022-08-21T08:02:01;94491.53;;;20.99;55.72
67434;BME280;54305;47.950;6.572;2022-08-21T08:04:27;94494.94;;;21.06;53.84
67434;BME280;54305;47.950;6.572;2022-08-21T08:06:52;94488.75;;;21.30;56.04
67434;BME280;54305;47.950;6.572;2022-08-21T08:09:17;94493.66;;;21.45;51.63
67434;BME280;54305;47.950;6.572;2022-08-21T08:11:43;94492.88;;;21.44;51.90
67434;BME280;54305;47.950;6.572;2022-08-21T08:14:08;94486.78;;;21.73;53.64
67434;BME280;54305;47.950;6.572;2022-08-21T08:16:33;94480.31;;;21.99;52.49
67434;BME280;54305;47.950;6.572;2022-08-21T08:18:59;94470.91;;;22.37;51.79
67434;BME280;54305;47.950;6.572;2022-08-21T08:21:24;94466.91;;;22.46;49.20
67434;BME280;54305;47.950;6.572;2022-08-21T08:23:49;94466.69;;;22.59;50.29
67434;BME280;54305;47.950;6.572;2022-08-21T08:26:15;94457.69;;;22.60;49.29
67434;BME280;54305;47.950;6.572;2022-08-21T08:28:43;94460.69;;;22.75;49.13
67434;BME280;54305;47.950;6.572;2022-08-21T08:31:08;94455.31;;;22.29;47.93
67434;BME280;54305;47.950;6.572;2022-08-21T08:33:34;94448.91;;;22.71;48.18
67434;BME280;54305;47.950;6.572;2022-08-21T08:35:59;94443.47;;;22.55;49.67
67434;BME280;54305;47.950;6.572;2022-08-21T08:38:24;94445.06;;;22.90;50.85
67434;BME280;54305;47.950;6.572;2022-08-21T08:43:16;94448.19;;;22.87;50.54
67434;BME280;54305;47.950;6.572;2022-08-21T08:45:42;94445.97;;;23.19;49.92
67434;BME280;54305;47.950;6.572;2022-08-21T08:48:10;94437.50;;;23.33;49.10
67434;BME280;54305;47.950;6.572;2022-08-21T08:53:17;94438.84;;;23.47;46.97
67434;BME280;54305;47.950;6.572;2022-08-21T08:55:45;94438.91;;;23.24;46.95
67434;BME280;54305;47.950;6.572;2022-08-21T08:58:16;94437.28;;;23.23;48.73
67434;BME280;54305;47.950;6.572;2022-08-21T09:00:44;94436.28;;;23.52;47.74
67434;BME280;54305;47.950;6.572;2022-08-21T09:03:12;94431.47;;;23.38;47.66
67434;BME280;54305;47.950;6.572;2022-08-21T09:05:52;94446.31;;;23.78;45.61
67434;BME280;54305;47.950;6.572;2022-08-21T09:11:05;94443.56;;;23.73;47.43
67434;BME280;54305;47.950;6.572;2022-08-21T09:13:36;94450.03;;;23.77;44.91
67434;BME280;54305;47.950;6.572;2022-08-21T09:21:20;94449.69;;;24.18;45.26
67434;BME280;54305;47.950;6.572;2022-08-21T09:24:00;94456.56;;;24.80;44.90
67434;BME280;54305;47.950;6.572;2022-08-21T09:26:27;94452.03;;;24.97;43.06
67434;BME280;54305;47.950;6.572;2022-08-21T09:28:56;94455.28;;;24.83;42.64
67434;BME280;54305;47.950;6.572;2022-08-21T09:31:26;94452.28;;;25.17;44.52
67434;BME280;54305;47.950;6.572;2022-08-21T09:36:25;94454.84;;;23.64;44.53
67434;BME280;54305;47.950;6.572;2022-08-21T09:38:55;94457.81;;;23.39;46.05
67434;BME280;54305;47.950;6.572;2022-08-21T09:41:28;94456.13;;;22.99;46.95
67434;BME280;54305;47.950;6.572;2022-08-21T09:43:54;94455.81;;;22.95;49.15
67434;BME280;54305;47.950;6.572;2022-08-21T09:46:23;94457.47;;;22.50;50.30
67434;BME280;54305;47.950;6.572;2022-08-21T09:48:50;94460.34;;;22.72;48.27
67434;BME280;54305;47.950;6.572;2022-08-21T09:53:42;94450.63;;;22.43;48.73
67434;BME280;54305;47.950;6.572;2022-08-21T09:59:16;94447.72;;;22.90;49.22
67434;BME280;54305;47.950;6.572;2022-08-21T10:01:46;94446.13;;;22.66;47.43
67434;BME280;54305;47.950;6.572;2022-08-21T10:04:12;94457.63;;;23.06;49.70
67434;BME280;54305;47.950;6.572;2022-08-21T10:06:37;94442.66;;;23.51;46.04
67434;BME280;54305;47.950;6.572;2022-08-21T10:09:13;94453.59;;;23.83;46.53
67434;BME280;54305;47.950;6.572;2022-08-21T10:11:39;94446.31;;;23.50;45.43
67434;BME280;54305;47.950;6.572;2022-08-21T10:27:33;94418.03;;;26.58;39.51
67434;BME280;54305;47.950;6.572;2022-08-21T10:30:03;94415.22;;;26.43;40.45
67434;BME280;54305;47.950;6.572;2022-08-21T10:33:03;94416.53;;;26.41;40.25
67434;BME280;54305;47.950;6.572;2022-08-21T10:37:48;94416.63;;;26.19;38.06
67434;BME280;54305;47.950;6.572;2022-08-21T10:43:21;94414.41;;;25.15;42.32
67434;BME280;54305;47.950;6.572;2022-08-21T10:48:31;94415.44;;;24.05;47.06
67434;BME280;54305;47.950;6.572;2022-08-21T10:51:10;94409.69;;;25.22;45.72
67434;BME280;54305;47.950;6.572;2022-08-21T10:56:19;94419.88;;;23.04;45.58
67434;BME280;54305;47.950;6.572;2022-08-21T10:58:49;94411.19;;;22.97;47.07
67434;BME280;54305;47.950;6.572;2022-08-21T11:01:20;94404.81;;;23.77;47.23
67434;BME280;54305;47.950;6.572;2022-08-21T11:04:00;94407.28;;;25.42;44.93
67434;BME280;54305;47.950;6.572;2022-08-21T11:06:30;94398.66;;;25.83;41.28
67434;BME280;54305;47.950;6.572;2022-08-21T11:09:16;94401.84;;;25.32;41.04
67434;BME280;54305;47.950;6.572;2022-08-21T11:11:56;94407.66;;;24.86;43.55
67434;BME280;54305;47.950;6.572;2022-08-21T11:17:31;94393.19;;;25.68;43.89
67434;BME280;54305;47.950;6.572;2022-08-21T11:19:39;94390.78;;;26.61;41.40
67434;BME280;54305;47.950;6.572;2022-08-21T11:22:15;94387.72;;;26.79;41.38
67434;BME280;54305;47.950;6.572;2022-08-21T11:24:47;94387.78;;;25.90;40.73
67434;BME280;54305;47.950;6.572;2022-08-21T11:29:43;94388.06;;;24.43;42.13
67434;BME280;54305;47.950;6.572;2022-08-21T11:37:04;94377.75;;;26.70;40.40
67434;BME280;54305;47.950;6.572;2022-08-21T11:42:07;94376.28;;;25.36;39.92
67434;BME280;54305;47.950;6.572;2022-08-21T11:44:45;94374.28;;;26.74;42.00
67434;BME280;54305;47.950;6.572;2022-08-21T11:52:26;94382.06;;;26.39;41.34
67434;BME280;54305;47.950;6.572;2022-08-21T11:55:12;94377.56;;;25.82;41.92
67434;BME280;54305;47.950;6.572;2022-08-21T11:57:47;94375.91;;;26.02;42.34
67434;BME280;54305;47.950;6.572;2022-08-21T12:00:29;94378.81;;;26.69;41.63
67434;BME280;54305;47.950;6.572;2022-08-21T12:02:57;94375.31;;;28.01;41.33
67434;BME280;54305;47.950;6.572;2022-08-21T12:10:47;94363.78;;;29.44;34.89
67434;BME280;54305;47.950;6.572;2022-08-21T12:13:25;94348.38;;;30.08;34.90
67434;BME280;54305;47.950;6.572;2022-08-21T12:15:51;94351.63;;;30.39;34.32
67434;BME280;54305;47.950;6.572;2022-08-21T12:20:56;94359.16;;;30.03;31.88
67434;BME280;54305;47.950;6.572;2022-08-21T12:23:29;94345.91;;;30.17;31.75
67434;BME280;54305;47.950;6.572;2022-08-21T12:26:47;94350.84;;;30.38;31.02
67434;BME280;54305;47.950;6.572;2022-08-21T12:28:43;94349.28;;;30.32;31.58
67434;BME280;54305;47.950;6.572;2022-08-21T12:31:27;94344.41;;;30.63;29.96
67434;BME280;54305;47.950;6.572;2022-08-21T12:34:00;94341.13;;;30.94;30.14
67434;BME280;54305;47.950;6.572;2022-08-21T12:36:40;94345.50;;;30.90;29.36
67434;BME280;54305;47.950;6.572;2022-08-21T12:39:11;94345.66;;;30.75;31.54
67434;BME280;54305;47.950;6.572;2022-08-21T12:41:50;94347.19;;;29.37;32.40
67434;BME280;54305;47.950;6.572;2022-08-21T12:44:17;94343.69;;;28.08;37.33
67434;BME280;54305;47.950;6.572;2022-08-21T12:49:54;94342.06;;;27.01;38.01
67434;BME280;54305;47.950;6.572;2022-08-21T12:52:23;94344.72;;;26.96;39.02
67434;BME280;54305;47.950;6.572;2022-08-21T12:54:48;94343.34;;;27.45;36.26
67434;BME280;54305;47.950;6.572;2022-08-21T12:57:18;94338.72;;;26.69;34.83
67434;BME280;54305;47.950;6.572;2022-08-21T12:59:44;94338.69;;;26.22;38.33
67434;BME280;54305;47.950;6.572;2022-08-21T13:02:16;94339.81;;;27.34;35.20
67434;BME280;54305;47.950;6.572;2022-08-21T13:04:43;94337.19;;;27.54;33.37
67434;BME280;54305;47.950;6.572;2022-08-21T13:07:10;94339.84;;;26.36;34.50
67434;BME280;54305;47.950;6.572;2022-08-21T13:10:23;94334.88;;;26.13;36.74
67434;BME280;54305;47.950;6.572;2022-08-21T13:12:23;94329.72;;;26.43;35.52
67434;BME280;54305;47.950;6.572;2022-08-21T13:14:49;94332.09;;;26.81;33.87
67434;BME280;54305;47.950;6.572;2022-08-21T13:17:19;94334.66;;;26.56;35.57
67434;BME280;54305;47.950;6.572;2022-08-21T13:19:55;94330.44;;;26.65;37.02
67434;BME280;54305;47.950;6.572;2022-08-21T13:22:20;94329.59;;;26.23;35.18
67434;BME280;54305;47.950;6.572;2022-08-21T13:24:46;94325.19;;;26.90;38.27
67434;BME280;54305;47.950;6.572;2022-08-21T13:27:24;94314.72;;;27.75;36.24
67434;BME280;54305;47.950;6.572;2022-08-21T13:29:59;94318.88;;;26.18;36.48
67434;BME280;54305;47.950;6.572;2022-08-21T13:32:25;94323.22;;;26.29;40.46
67434;BME280;54305;47.950;6.572;2022-08-21T13:34:52;94317.31;;;27.25;37.47
67434;BME280;54305;47.950;6.572;2022-08-21T13:37:18;94319.75;;;27.27;34.87
67434;BME280;54305;47.950;6.572;2022-08-21T13:39:48;94310.25;;;26.89;35.30
67434;BME280;54305;47.950;6.572;2022-08-21T13:42:14;94318.78;;;26.45;36.39
67434;BME280;54305;47.950;6.572;2022-08-21T13:44:40;94319.94;;;27.10;38.13
67434;BME280;54305;47.950;6.572;2022-08-21T13:47:06;94316.38;;;28.16;36.11
67434;BME280;54305;47.950;6.572;2022-08-21T13:49:38;94319.06;;;28.11;33.95
67434;BME280;54305;47.950;6.572;2022-08-21T13:52:04;94308.75;;;26.20;35.55
67434;BME280;54305;47.950;6.572;2022-08-21T13:54:39;94309.38;;;25.64;36.96
67434;BME280;54305;47.950;6.572;2022-08-21T13:57:12;94302.59;;;25.83;39.26
67434;BME280;54305;47.950;6.572;2022-08-21T13:59:40;94311.31;;;25.47;38.04
67434;BME280;54305;47.950;6.572;2022-08-21T14:02:19;94304.97;;;25.53;37.41
67434;BME280;54305;47.950;6.572;2022-08-21T14:04:55;94299.53;;;26.01;38.74
67434;BME280;54305;47.950;6.572;2022-08-21T14:07:26;94300.47;;;25.85;38.33
67434;BME280;54305;47.950;6.572;2022-08-21T14:09:52;94304.50;;;26.24;37.48
67434;BME280;54305;47.950;6.572;2022-08-21T14:12:23;94301.41;;;26.01;37.10
67434;BME280;54305;47.950;6.572;2022-08-21T14:14:49;94306.56;;;26.12;37.34
67434;BME280;54305;47.950;6.572;2022-08-21T14:17:25;94306.97;;;25.94;37.02
67434;BME280;54305;47.950;6.572;2022-08-21T14:19:51;94298.31;;;25.87;37.12